Terminal Aerodrome Forecast
Issued by NWS Salt Lake City, UT

Home | Current Version | Previous Version | Text Only | Print | Product List | Glossary On
Versions: 1 2 3 4 5 6 7 8 9 10 11 12 13 14 15 16 17 18 19 20 21 22 23 24 25 26 27 28 29 30 31 32 33 34 35 36
000
FTUS45 KSLC 111223 AAB
TAFSLC
TAF AMD
KSLC 111223Z 1112/1218 11007KT P6SM VCSH SCT030 BKN050
     FM111245 33012G17KT P6SM -SHRASN SCT020 BKN030
      TEMPO 1113/1114 3SM -SN SCT012 OVC020
     FM111400 33004KT P6SM VCSH SCT030 BKN060
     FM111600 27009KT P6SM SCT060
     FM111900 32008KT P6SM SCT120
     FM120300 14006KT P6SM FEW120=

USA.gov is the U.S. government's official web portal to all federal, state and local government web resources and services.